Elke K — PBES — position and weather

sailwx.info

Track history (hours):
 
Tides and Currents Weather Stations Pressure Air Temp Water Temp Dewpoint Dewpoint Depression Visibility Wind Speed Wind Dir Waves Ship Positions

Elke K

Last reported at 2018-Feb-23 03:00 UTC. Time now 2018-Feb-23 03:08 UTC.
Position N 50°11' W 003°34'.

Length 88 m; draft 5.6 m.

Type: Cargo ship. MMSI: 246180000.

Date/timePositionNaut miles runAvg speedWind from/ knotsBaromVisibWave heightAir tempDewpointWater temp
2018-Feb-23 03:00N 50°11' W 003°34'5 9.6
2018-Feb-23 02:30N 50°13' W 003°27'5 9.2
2018-Feb-23 02:00N 50°15' W 003°20'4 9.0
2018-Feb-23 01:30N 50°16' W 003°14'4 8.7
2018-Feb-23 01:00N 50°18' W 003°07'4 8.6
2018-Feb-23 00:30N 50°19' W 003°01'4 8.4
2018-Feb-23 00:00N 50°21' W 002°55'3467.8
2018-Feb-22 23:31N 50°28' W 002°03'2651.0
2018-Feb-22 23:00N 50°24' W 002°42'4 8.7
2018-Feb-22 22:30N 50°25' W 002°36'5 9.0
2018-Feb-22 22:00N 50°27' W 002°29'3610.5
2018-Feb-22 18:36N 50°29' W 001°33'312.1
2018-Feb-22 18:22N 50°29' W 001°29'612.4
2018-Feb-22 17:53N 50°29' W 001°19'512.6
2018-Feb-22 17:30N 50°29' W 001°11'612.2
2018-Feb-22 17:00N 50°30' W 001°02'1711.3
2018-Feb-22 15:32N 50°31' W 000°36'1 9.4
2018-Feb-22 15:25N 50°31' W 000°34'4 9.2
2018-Feb-22 15:00N 50°31' W 000°28'5 8.9
2018-Feb-22 14:29N 50°31' W 000°21'4 8.5
2018-Feb-22 14:00N 50°31' W 000°15'4 8.2
2018-Feb-22 13:30N 50°32' W 000°08'4 7.9
2018-Feb-22 13:00N 50°32' W 000°02'4 7.8
2018-Feb-22 12:30N 50°33' E 000°04'4 7.8
2018-Feb-22 12:00N 50°34' E 000°10'4 8.2
2018-Feb-22 11:30N 50°35' E 000°16'4 8.6
2018-Feb-22 11:00N 50°37' E 000°23'5 9.4
2018-Feb-22 10:30N 50°38' E 000°30'510.0
2018-Feb-22 10:00N 50°40' E 000°37'510.7
2018-Feb-22 09:30N 50°43' E 000°44'611.0
2018-Feb-22 09:00N 50°46' E 000°51'611.1
2018-Feb-22 08:30N 50°49' E 000°58'610.9
2018-Feb-22 07:59N 50°53' E 001°05'611.2
2018-Feb-22 07:30N 50°56' E 001°12'510.6
2018-Feb-22 06:59N 50°60' E 001°19'4 9.5
2018-Feb-22 06:30N 51°03' E 001°24'5 9.2
2018-Feb-22 06:00N 51°05' E 001°30'4 7.8
2018-Feb-22 05:30N 51°08' E 001°35'4 7.7
2018-Feb-22 05:00N 51°11' E 001°39'4 7.6
2018-Feb-22 04:30N 51°13' E 001°44'4 8.0
2018-Feb-22 04:00N 51°16' E 001°48'4 8.5
2018-Feb-22 03:30N 51°20' E 001°51'4 9.0
2018-Feb-22 03:00N 51°23' E 001°56'4 8.2
2018-Feb-22 02:30N 51°25' E 002°02'5 9.9
2018-Feb-22 02:00N 51°23' E 002°09'510.0
2018-Feb-22 01:29N 51°21' E 002°17'511.2
2018-Feb-22 01:00N 51°22' E 002°25'611.3
2018-Feb-22 00:27N 51°23' E 002°35'510.9
2018-Feb-22 00:00N 51°22' E 002°43'510.4
2018-Feb-21 23:30N 51°22' E 002°51'611.7
2018-Feb-21 23:01N 51°24' E 003°01'611.6
2018-Feb-21 22:30N 51°24' E 003°10'612.5
2018-Feb-21 22:00N 51°25' E 003°20'812.9
2018-Feb-21 21:25N 51°26' E 003°32'410.0
2018-Feb-21 21:00N 51°25' E 003°38'612.4
2018-Feb-21 20:30N 51°22' E 003°46'2 4.3
2018-Feb-21 20:00N 51°20' E 003°49'0 1.0
2018-Feb-21 19:30N 51°20' E 003°49'3 5.5
2018-Feb-21 19:00N 51°17' E 003°50'4 7.1
2018-Feb-21 18:30N 51°14' E 003°48'4 7.5
2018-Feb-21 18:00N 51°10' E 003°47'4 7.4
2018-Feb-21 17:30N 51°07' E 003°45'2 3.8
2018-Feb-21 17:01N 51°05' E 003°44'0 0.0
2018-Feb-21 16:28N 51°05' E 003°44'0 0.0
2018-Feb-21 15:55N 51°05' E 003°44'0 0.0
2018-Feb-21 15:25N 51°05' E 003°44'0 0.0
2018-Feb-21 14:55N 51°05' E 003°44'0 0.0
2018-Feb-21 14:22N 51°05' E 003°44'0 0.0
2018-Feb-21 13:55N 51°05' E 003°44'0 0.0
2018-Feb-21 13:28N 51°05' E 003°44'0 0.0
2018-Feb-21 12:58N 51°05' E 003°44'0 0.0
2018-Feb-21 12:25N 51°05' E 003°44'0 0.0
2018-Feb-21 11:55N 51°05' E 003°44'0 0.0
2018-Feb-21 11:28N 51°05' E 003°44'0 0.0
2018-Feb-21 10:58N 51°05' E 003°44'0 0.0
2018-Feb-21 10:28N 51°05' E 003°44'0 0.0
2018-Feb-21 09:58N 51°05' E 003°44'0 0.0
2018-Feb-21 09:28N 51°05' E 003°44'0 0.0
2018-Feb-21 08:58N 51°05' E 003°44'0 0.0
2018-Feb-21 08:28N 51°05' E 003°44'0 0.0
2018-Feb-21 07:55N 51°05' E 003°44'0 0.0
2018-Feb-21 07:28N 51°05' E 003°44'0 0.0
2018-Feb-21 06:55N 51°05' E 003°44'0 0.0
2018-Feb-21 06:25N 51°05' E 003°44'0 0.0
2018-Feb-21 05:55N 51°05' E 003°44'0 0.0
2018-Feb-21 05:28N 51°05' E 003°44'0 0.0
2018-Feb-21 04:58N 51°05' E 003°44'0 0.0
2018-Feb-21 04:25N 51°05' E 003°44'0 0.0
2018-Feb-21 03:58N 51°05' E 003°44'0 0.0
2018-Feb-21 03:22N 51°05' E 003°44'0 0.0
2018-Feb-21 02:55N 51°05' E 003°44'0 0.0
2018-Feb-21 02:28N 51°05' E 003°44'0 0.0
2018-Feb-21 01:58N 51°05' E 003°44'0 0.0
2018-Feb-21 01:19N 51°05' E 003°44'0 0.0
2018-Feb-21 00:49N 51°05' E 003°44'0 0.0
2018-Feb-21 00:28N 51°05' E 003°44'0 0.0
2018-Feb-20 23:58N 51°05' E 003°44'0 0.0
2018-Feb-20 23:25N 51°05' E 003°44'0 0.0
2018-Feb-20 22:58N 51°05' E 003°44'0 0.0
2018-Feb-20 22:22N 51°05' E 003°44'0 0.0
2018-Feb-20 21:58N 51°05' E 003°44'0 0.0
2018-Feb-20 21:28N 51°05' E 003°44'0 0.0
2018-Feb-20 20:58N 51°05' E 003°44'0 0.0
2018-Feb-20 20:19N 51°05' E 003°44'0 0.0
2018-Feb-20 20:01N 51°05' E 003°44'0 0.0
2018-Feb-20 19:24N 51°05' E 003°44'0 0.0
2018-Feb-20 19:00N 51°05' E 003°44'0 0.0
2018-Feb-20 18:22N 51°05' E 003°44'0 0.0
2018-Feb-20 18:00N 51°05' E 003°44'0 0.0
2018-Feb-20 17:30N 51°05' E 003°44'0 0.0
2018-Feb-20 16:57N 51°05' E 003°44'0 0.0
2018-Feb-20 16:28N 51°05' E 003°44'0 0.0
2018-Feb-20 16:00N 51°05' E 003°44'0 0.0
2018-Feb-20 15:27N 51°05' E 003°44'0 0.0
2018-Feb-20 15:00N 51°05' E 003°44'0 0.0
2018-Feb-20 14:21N 51°05' E 003°44'0 0.0
2018-Feb-20 14:00N 51°05' E 003°44'0 0.0
2018-Feb-20 13:24N 51°05' E 003°44'1 1.7
2018-Feb-20 13:00N 51°05' E 003°44'0 0.1
2018-Feb-20 12:30N 51°05' E 003°44'0 0.0
2018-Feb-20 11:48N 51°05' E 003°44'0 0.0
2018-Feb-20 11:30N 51°05' E 003°44'0 0.0
2018-Feb-20 11:00N 51°05' E 003°44'0 0.0
2018-Feb-20 10:30N 51°05' E 003°44'0 0.0
2018-Feb-20 10:00N 51°05' E 003°44'0 0.0
2018-Feb-20 09:27N 51°05' E 003°44'0 0.0
2018-Feb-20 09:00N 51°05' E 003°44'0 0.0
2018-Feb-20 08:30N 51°05' E 003°44'0 0.0
2018-Feb-20 08:00N 51°05' E 003°44'0 0.0
2018-Feb-20 07:24N 51°05' E 003°44'0 0.0
2018-Feb-20 07:00N 51°05' E 003°44'0 0.0
2018-Feb-20 06:27N 51°05' E 003°44'0 0.0
2018-Feb-20 05:54N 51°05' E 003°44'0 0.0
2018-Feb-20 05:24N 51°05' E 003°44'0 0.0
2018-Feb-20 04:57N 51°05' E 003°44'0 0.0
2018-Feb-20 04:27N 51°05' E 003°44'0 0.0
2018-Feb-20 03:48N 51°05' E 003°44'0 0.0
2018-Feb-20 03:30N 51°05' E 003°44'0 0.0
2018-Feb-20 02:54N 51°05' E 003°44'0 0.0
2018-Feb-20 02:18N 51°05' E 003°44'0 0.0
2018-Feb-20 02:00N 51°05' E 003°44'0 0.0
2018-Feb-20 01:30N 51°05' E 003°44'0 0.0
2018-Feb-20 01:00N 51°05' E 003°44'0 0.0
2018-Feb-20 00:30N 51°05' E 003°44'0 0.0
2018-Feb-19 23:57N 51°05' E 003°44'0 0.0
2018-Feb-19 23:30N 51°05' E 003°44'0 0.0
2018-Feb-19 23:00N 51°05' E 003°44'0 0.0
2018-Feb-19 22:30N 51°05' E 003°44'0 0.0
2018-Feb-19 22:00N 51°05' E 003°44'0 0.0
2018-Feb-19 21:12N 51°05' E 003°44'0 0.0
2018-Feb-19 21:00N 51°05' E 003°44'0 0.0
2018-Feb-19 20:30N 51°05' E 003°44'0 0.0
2018-Feb-19 19:57N 51°05' E 003°44'0 0.0
2018-Feb-19 19:24N 51°05' E 003°44'0 0.0
2018-Feb-19 18:57N 51°05' E 003°44'0 0.0
2018-Feb-19 18:30N 51°05' E 003°44'0 0.0
2018-Feb-19 18:00N 51°05' E 003°44'0 0.0
2018-Feb-19 17:30N 51°05' E 003°44'0 0.0
2018-Feb-19 16:57N 51°05' E 003°44'0 0.0
2018-Feb-19 16:30N 51°05' E 003°44'0 0.0
2018-Feb-19 16:00N 51°05' E 003°44'0 0.0
2018-Feb-19 15:30N 51°05' E 003°44'0 0.0
2018-Feb-19 15:00N 51°05' E 003°44'0 0.0
2018-Feb-19 14:21N 51°05' E 003°44'0 0.0
2018-Feb-19 14:00N 51°05' E 003°44'0 0.0
2018-Feb-19 13:30N 51°05' E 003°44'0 0.0
2018-Feb-19 13:00N 51°05' E 003°44'0 0.0
2018-Feb-19 12:31N 51°05' E 003°44'0 0.0
2018-Feb-19 12:00N 51°05' E 003°44'0 0.0
2018-Feb-19 11:30N 51°05' E 003°44'0 0.0
2018-Feb-19 10:54N 51°05' E 003°44'0 0.0
2018-Feb-19 10:27N 51°05' E 003°44'0 0.0
2018-Feb-19 10:00N 51°05' E 003°44'0 0.0
2018-Feb-19 09:30N 51°05' E 003°44'0 0.0
2018-Feb-19 08:51N 51°05' E 003°44'0 0.0
2018-Feb-19 08:24N 51°05' E 003°44'0 0.0
2018-Feb-19 08:00N 51°05' E 003°44'0 0.0
2018-Feb-19 07:30N 51°05' E 003°44'0 0.0
2018-Feb-19 06:51N 51°05' E 003°44'0 0.0
2018-Feb-19 06:30N 51°05' E 003°44'0 0.0
2018-Feb-19 06:00N 51°05' E 003°44'0 0.0
2018-Feb-19 05:24N 51°05' E 003°44'0 0.0
2018-Feb-19 04:57N 51°05' E 003°44'0 0.0
2018-Feb-19 04:30N 51°05' E 003°44'0 0.0
2018-Feb-19 04:00N 51°05' E 003°44'0 0.0
2018-Feb-19 03:27N 51°05' E 003°44'0 0.0
2018-Feb-19 02:57N 51°05' E 003°44'0 0.0
2018-Feb-19 02:30N 51°05' E 003°44'0 0.0
2018-Feb-19 01:57N 51°05' E 003°44'0 0.0
2018-Feb-19 01:30N 51°05' E 003°44'0 0.0
2018-Feb-19 00:57N 51°05' E 003°44'0 0.0
2018-Feb-19 00:27N 51°05' E 003°44'0 0.0
2018-Feb-19 00:00N 51°05' E 003°44'0 0.0
2018-Feb-18 23:30N 51°05' E 003°44'0 0.0
2018-Feb-18 22:57N 51°05' E 003°44'0 0.0
2018-Feb-18 22:30N 51°05' E 003°44'0 0.0
2018-Feb-18 22:00N 51°05' E 003°44'0 0.0
2018-Feb-18 21:27N 51°05' E 003°44'0 0.0
2018-Feb-18 20:57N 51°05' E 003°44'0 0.0
2018-Feb-18 20:30N 51°05' E 003°44'0 0.0
2018-Feb-18 20:00N 51°05' E 003°44'0 0.0
2018-Feb-18 19:27N 51°05' E 003°44'0 0.0
2018-Feb-18 19:00N 51°05' E 003°44'0 0.0
2018-Feb-18 18:30N 51°05' E 003°44'0 0.0
2018-Feb-18 18:00N 51°05' E 003°44'0 0.0
2018-Feb-18 17:30N 51°05' E 003°44'0 0.0
2018-Feb-18 17:00N 51°05' E 003°44'0 0.0
2018-Feb-18 16:30N 51°05' E 003°44'0 0.0
2018-Feb-18 15:54N 51°05' E 003°44'0 0.0
2018-Feb-18 15:30N 51°05' E 003°44'0 0.0
2018-Feb-18 15:00N 51°05' E 003°44'0 0.0
2018-Feb-18 14:30N 51°05' E 003°44'0 0.0
2018-Feb-18 14:00N 51°05' E 003°44'0 0.0
2018-Feb-18 13:30N 51°05' E 003°44'0 0.0
2018-Feb-18 13:00N 51°05' E 003°44'0 0.0
2018-Feb-18 12:30N 51°05' E 003°44'0 0.0
2018-Feb-18 12:00N 51°05' E 003°44'0 0.0
2018-Feb-18 11:30N 51°05' E 003°44'0 0.0
2018-Feb-18 10:57N 51°05' E 003°44'0 0.0
2018-Feb-18 10:30N 51°05' E 003°44'0 0.0
2018-Feb-18 09:57N 51°05' E 003°44'0 0.0
2018-Feb-18 09:30N 51°05' E 003°44'0 0.0
2018-Feb-18 08:57N 51°05' E 003°44'0 0.0
2018-Feb-18 08:27N 51°05' E 003°44'0 0.0
2018-Feb-18 07:57N 51°05' E 003°44'0 0.0
2018-Feb-18 07:27N 51°05' E 003°44'0 0.0
2018-Feb-18 07:00N 51°05' E 003°44'0 0.0
2018-Feb-18 06:30N 51°05' E 003°44'0 0.0
2018-Feb-18 05:57N 51°05' E 003°44'0 0.0
2018-Feb-18 05:27N 51°05' E 003°44'0 0.0
2018-Feb-18 05:00N 51°05' E 003°44'0 0.0
2018-Feb-18 04:30N 51°05' E 003°44'0 0.0
2018-Feb-18 03:57N 51°05' E 003°44'0 0.0
2018-Feb-18 03:30N 51°05' E 003°44'0 0.0
2018-Feb-18 02:57N 51°05' E 003°44'0 0.0
2018-Feb-18 02:27N 51°05' E 003°44'0 0.0
2018-Feb-18 01:59N 51°05' E 003°44'0 0.0
2018-Feb-18 01:29N 51°05' E 003°44'0 0.0
2018-Feb-18 00:59N 51°05' E 003°44'0 0.0
2018-Feb-18 00:27N 51°05' E 003°44'0 0.0
2018-Feb-17 23:59N 51°05' E 003°44'0 0.0
2018-Feb-17 23:30N 51°05' E 003°44'1 2.7
2018-Feb-17 23:01N 51°07' E 003°45'4 8.0
2018-Feb-17 22:31N 51°10' E 003°48'4 7.7
2018-Feb-17 22:00N 51°14' E 003°49'4 7.6
2018-Feb-17 21:31N 51°18' E 003°50'2 4.2
2018-Feb-17 21:01N 51°20' E 003°49'0 1.0
2018-Feb-17 20:30N 51°20' E 003°49'2 3.1
2018-Feb-17 20:00N 51°21' E 003°47'3 5.0
2018-Feb-17 19:30N 51°23' E 003°44'4 7.4
2018-Feb-17 19:00N 51°25' E 003°39'3 6.4
2018-Feb-17 18:30N 51°25' E 003°34'3 5.1
2018-Feb-17 18:00N 51°25' E 003°30'4 7.7
2018-Feb-17 17:30N 51°24' E 003°24'4 9.0
2018-Feb-17 17:01N 51°24' E 003°17'510.0
2018-Feb-17 16:31N 51°22' E 003°09'510.8
2018-Feb-17 16:01N 51°22' E 003°01'611.1
2018-Feb-17 15:30N 51°22' E 002°52'510.5
2018-Feb-17 15:00N 51°22' E 002°43'4 7.7
2018-Feb-17 14:30N 51°22' E 002°37'4 8.1
2018-Feb-17 13:59N 51°22' E 002°30'4 8.3
2018-Feb-17 13:29N 51°20' E 002°24'4 8.3
2018-Feb-17 13:00N 51°18' E 002°19'611.1
2018-Feb-17 12:30N 51°15' E 002°11'612.3
2018-Feb-17 12:00N 51°12' E 002°03'612.0
2018-Feb-17 11:31N 51°09' E 001°54'611.5
2018-Feb-17 11:01N 51°06' E 001°47'611.4
2018-Feb-17 10:31N 51°02' E 001°41'510.6
2018-Feb-17 10:00N 50°58' E 001°35'5 9.3
2018-Feb-17 09:30N 50°54' E 001°30'5 8.6
2018-Feb-17 08:56N 50°50' E 001°27'62 8.4
2018-Feb-17 01:29N 50°19' E 000°02'12 9.6
2018-Feb-17 00:16N 50°16' W 000°16'3211.7
2018-Feb-16 21:35N 50°07' W 001°03'213.2
2018-Feb-16 21:26N 50°07' W 001°06'613.3
2018-Feb-16 21:00N 50°05' W 001°15'713.5
2018-Feb-16 20:31N 50°03' W 001°25'713.5
2018-Feb-16 20:00N 50°02' W 001°35'713.3
2018-Feb-16 19:30N 50°00' W 001°45'612.7
2018-Feb-16 19:00N 49°59' W 001°55'119 9.3
2018-Feb-16 06:11N 49°07' W 004°41'311.0
2018-Feb-16 05:55N 49°06' W 004°45'611.1
2018-Feb-16 05:24N 49°03' W 004°53'511.2
2018-Feb-16 04:57N 49°01' W 004°60'611.2
2018-Feb-16 04:26N 48°58' W 005°08'811.3
2018-Feb-16 03:43N 48°53' W 005°17'311.2
2018-Feb-16 03:27N 48°52' W 005°21'611.2
2018-Feb-16 02:53N 48°49' W 005°30'411.1
2018-Feb-16 02:29N 48°46' W 005°35'  
2018-Feb-13 05:17N 39°24' W 009°50'3 8.9
2018-Feb-13 04:57N 39°21' W 009°50'4 9.1
2018-Feb-13 04:30N 39°17' W 009°50'5 9.0
2018-Feb-13 04:00N 39°13' W 009°50'4 8.9
2018-Feb-13 03:30N 39°08' W 009°50'  
Track history (hours):
 
Tides and Currents Weather Stations Pressure Air Temp Water Temp Dewpoint Dewpoint Depression Visibility Wind Speed Wind Dir Waves Ship Positions

Elke K

Last reported at 2018-Feb-23 03:00 UTC. Time now 2018-Feb-23 03:08 UTC.
Position N 50°11' W 003°34'.

Length 88 m; draft 5.6 m.

Type: Cargo ship. MMSI: 246180000.

Date/timePositionNaut miles runAvg speedWind from/ knotsBaromVisibWave heightAir tempDewpointWater temp
2018-Feb-23 03:00N 50°11' W 003°34'5 9.6
2018-Feb-23 02:30N 50°13' W 003°27'5 9.2
2018-Feb-23 02:00N 50°15' W 003°20'4 9.0
2018-Feb-23 01:30N 50°16' W 003°14'4 8.7
2018-Feb-23 01:00N 50°18' W 003°07'4 8.6
2018-Feb-23 00:30N 50°19' W 003°01'4 8.4
2018-Feb-23 00:00N 50°21' W 002°55'3467.8
2018-Feb-22 23:31N 50°28' W 002°03'2651.0
2018-Feb-22 23:00N 50°24' W 002°42'4 8.7
2018-Feb-22 22:30N 50°25' W 002°36'5 9.0
2018-Feb-22 22:00N 50°27' W 002°29'3610.5
2018-Feb-22 18:36N 50°29' W 001°33'312.1
2018-Feb-22 18:22N 50°29' W 001°29'612.4
2018-Feb-22 17:53N 50°29' W 001°19'512.6
2018-Feb-22 17:30N 50°29' W 001°11'612.2
2018-Feb-22 17:00N 50°30' W 001°02'1711.3
2018-Feb-22 15:32N 50°31' W 000°36'1 9.4
2018-Feb-22 15:25N 50°31' W 000°34'4 9.2
2018-Feb-22 15:00N 50°31' W 000°28'5 8.9
2018-Feb-22 14:29N 50°31' W 000°21'4 8.5
2018-Feb-22 14:00N 50°31' W 000°15'4 8.2
2018-Feb-22 13:30N 50°32' W 000°08'4 7.9
2018-Feb-22 13:00N 50°32' W 000°02'4 7.8
2018-Feb-22 12:30N 50°33' E 000°04'4 7.8
2018-Feb-22 12:00N 50°34' E 000°10'4 8.2
2018-Feb-22 11:30N 50°35' E 000°16'4 8.6
2018-Feb-22 11:00N 50°37' E 000°23'5 9.4
2018-Feb-22 10:30N 50°38' E 000°30'510.0
2018-Feb-22 10:00N 50°40' E 000°37'510.7
2018-Feb-22 09:30N 50°43' E 000°44'611.0
2018-Feb-22 09:00N 50°46' E 000°51'611.1
2018-Feb-22 08:30N 50°49' E 000°58'610.9
2018-Feb-22 07:59N 50°53' E 001°05'611.2
2018-Feb-22 07:30N 50°56' E 001°12'510.6
2018-Feb-22 06:59N 50°60' E 001°19'4 9.5
2018-Feb-22 06:30N 51°03' E 001°24'5 9.2
2018-Feb-22 06:00N 51°05' E 001°30'4 7.8
2018-Feb-22 05:30N 51°08' E 001°35'4 7.7
2018-Feb-22 05:00N 51°11' E 001°39'4 7.6
2018-Feb-22 04:30N 51°13' E 001°44'4 8.0
2018-Feb-22 04:00N 51°16' E 001°48'4 8.5
2018-Feb-22 03:30N 51°20' E 001°51'4 9.0
2018-Feb-22 03:00N 51°23' E 001°56'4 8.2
2018-Feb-22 02:30N 51°25' E 002°02'5 9.9
2018-Feb-22 02:00N 51°23' E 002°09'510.0
2018-Feb-22 01:29N 51°21' E 002°17'511.2
2018-Feb-22 01:00N 51°22' E 002°25'611.3
2018-Feb-22 00:27N 51°23' E 002°35'510.9
2018-Feb-22 00:00N 51°22' E 002°43'510.4
2018-Feb-21 23:30N 51°22' E 002°51'611.7
2018-Feb-21 23:01N 51°24' E 003°01'611.6
2018-Feb-21 22:30N 51°24' E 003°10'612.5
2018-Feb-21 22:00N 51°25' E 003°20'812.9
2018-Feb-21 21:25N 51°26' E 003°32'410.0
2018-Feb-21 21:00N 51°25' E 003°38'612.4
2018-Feb-21 20:30N 51°22' E 003°46'2 4.3
2018-Feb-21 20:00N 51°20' E 003°49'0 1.0
2018-Feb-21 19:30N 51°20' E 003°49'3 5.5
2018-Feb-21 19:00N 51°17' E 003°50'4 7.1
2018-Feb-21 18:30N 51°14' E 003°48'4 7.5
2018-Feb-21 18:00N 51°10' E 003°47'4 7.4
2018-Feb-21 17:30N 51°07' E 003°45'2 3.8
2018-Feb-21 17:01N 51°05' E 003°44'0 0.0
2018-Feb-21 16:28N 51°05' E 003°44'0 0.0
2018-Feb-21 15:55N 51°05' E 003°44'0 0.0
2018-Feb-21 15:25N 51°05' E 003°44'0 0.0
2018-Feb-21 14:55N 51°05' E 003°44'0 0.0
2018-Feb-21 14:22N 51°05' E 003°44'0 0.0
2018-Feb-21 13:55N 51°05' E 003°44'0 0.0
2018-Feb-21 13:28N 51°05' E 003°44'0 0.0
2018-Feb-21 12:58N 51°05' E 003°44'0 0.0
2018-Feb-21 12:25N 51°05' E 003°44'0 0.0
2018-Feb-21 11:55N 51°05' E 003°44'0 0.0
2018-Feb-21 11:28N 51°05' E 003°44'0 0.0
2018-Feb-21 10:58N 51°05' E 003°44'0 0.0
2018-Feb-21 10:28N 51°05' E 003°44'0 0.0
2018-Feb-21 09:58N 51°05' E 003°44'0 0.0
2018-Feb-21 09:28N 51°05' E 003°44'0 0.0
2018-Feb-21 08:58N 51°05' E 003°44'0 0.0
2018-Feb-21 08:28N 51°05' E 003°44'0 0.0
2018-Feb-21 07:55N 51°05' E 003°44'0 0.0
2018-Feb-21 07:28N 51°05' E 003°44'0 0.0
2018-Feb-21 06:55N 51°05' E 003°44'0 0.0
2018-Feb-21 06:25N 51°05' E 003°44'0 0.0
2018-Feb-21 05:55N 51°05' E 003°44'0 0.0
2018-Feb-21 05:28N 51°05' E 003°44'0 0.0
2018-Feb-21 04:58N 51°05' E 003°44'0 0.0
2018-Feb-21 04:25N 51°05' E 003°44'0 0.0
2018-Feb-21 03:58N 51°05' E 003°44'0 0.0
2018-Feb-21 03:22N 51°05' E 003°44'0 0.0
2018-Feb-21 02:55N 51°05' E 003°44'0 0.0
2018-Feb-21 02:28N 51°05' E 003°44'0 0.0
2018-Feb-21 01:58N 51°05' E 003°44'0 0.0
2018-Feb-21 01:19N 51°05' E 003°44'0 0.0
2018-Feb-21 00:49N 51°05' E 003°44'0 0.0
2018-Feb-21 00:28N 51°05' E 003°44'0 0.0
2018-Feb-20 23:58N 51°05' E 003°44'0 0.0
2018-Feb-20 23:25N 51°05' E 003°44'0 0.0
2018-Feb-20 22:58N 51°05' E 003°44'0 0.0
2018-Feb-20 22:22N 51°05' E 003°44'0 0.0
2018-Feb-20 21:58N 51°05' E 003°44'0 0.0
2018-Feb-20 21:28N 51°05' E 003°44'0 0.0
2018-Feb-20 20:58N 51°05' E 003°44'0 0.0
2018-Feb-20 20:19N 51°05' E 003°44'0 0.0
2018-Feb-20 20:01N 51°05' E 003°44'0 0.0
2018-Feb-20 19:24N 51°05' E 003°44'0 0.0
2018-Feb-20 19:00N 51°05' E 003°44'0 0.0
2018-Feb-20 18:22N 51°05' E 003°44'0 0.0
2018-Feb-20 18:00N 51°05' E 003°44'0 0.0
2018-Feb-20 17:30N 51°05' E 003°44'0 0.0
2018-Feb-20 16:57N 51°05' E 003°44'0 0.0
2018-Feb-20 16:28N 51°05' E 003°44'0 0.0
2018-Feb-20 16:00N 51°05' E 003°44'0 0.0
2018-Feb-20 15:27N 51°05' E 003°44'0 0.0
2018-Feb-20 15:00N 51°05' E 003°44'0 0.0
2018-Feb-20 14:21N 51°05' E 003°44'0 0.0
2018-Feb-20 14:00N 51°05' E 003°44'0 0.0
2018-Feb-20 13:24N 51°05' E 003°44'1 1.7
2018-Feb-20 13:00N 51°05' E 003°44'0 0.1
2018-Feb-20 12:30N 51°05' E 003°44'0 0.0
2018-Feb-20 11:48N 51°05' E 003°44'0 0.0
2018-Feb-20 11:30N 51°05' E 003°44'0 0.0
2018-Feb-20 11:00N 51°05' E 003°44'0 0.0
2018-Feb-20 10:30N 51°05' E 003°44'0 0.0
2018-Feb-20 10:00N 51°05' E 003°44'0 0.0
2018-Feb-20 09:27N 51°05' E 003°44'0 0.0
2018-Feb-20 09:00N 51°05' E 003°44'0 0.0
2018-Feb-20 08:30N 51°05' E 003°44'0 0.0
2018-Feb-20 08:00N 51°05' E 003°44'0 0.0
2018-Feb-20 07:24N 51°05' E 003°44'0 0.0
2018-Feb-20 07:00N 51°05' E 003°44'0 0.0
2018-Feb-20 06:27N 51°05' E 003°44'0 0.0
2018-Feb-20 05:54N 51°05' E 003°44'0 0.0
2018-Feb-20 05:24N 51°05' E 003°44'0 0.0
2018-Feb-20 04:57N 51°05' E 003°44'0 0.0
2018-Feb-20 04:27N 51°05' E 003°44'0 0.0
2018-Feb-20 03:48N 51°05' E 003°44'0 0.0
2018-Feb-20 03:30N 51°05' E 003°44'0 0.0
2018-Feb-20 02:54N 51°05' E 003°44'0 0.0
2018-Feb-20 02:18N 51°05' E 003°44'0 0.0
2018-Feb-20 02:00N 51°05' E 003°44'0 0.0
2018-Feb-20 01:30N 51°05' E 003°44'0 0.0
2018-Feb-20 01:00N 51°05' E 003°44'0 0.0
2018-Feb-20 00:30N 51°05' E 003°44'0 0.0
2018-Feb-19 23:57N 51°05' E 003°44'0 0.0
2018-Feb-19 23:30N 51°05' E 003°44'0 0.0
2018-Feb-19 23:00N 51°05' E 003°44'0 0.0
2018-Feb-19 22:30N 51°05' E 003°44'0 0.0
2018-Feb-19 22:00N 51°05' E 003°44'0 0.0
2018-Feb-19 21:12N 51°05' E 003°44'0 0.0
2018-Feb-19 21:00N 51°05' E 003°44'0 0.0
2018-Feb-19 20:30N 51°05' E 003°44'0 0.0
2018-Feb-19 19:57N 51°05' E 003°44'0 0.0
2018-Feb-19 19:24N 51°05' E 003°44'0 0.0
2018-Feb-19 18:57N 51°05' E 003°44'0 0.0
2018-Feb-19 18:30N 51°05' E 003°44'0 0.0
2018-Feb-19 18:00N 51°05' E 003°44'0 0.0
2018-Feb-19 17:30N 51°05' E 003°44'0 0.0
2018-Feb-19 16:57N 51°05' E 003°44'0 0.0
2018-Feb-19 16:30N 51°05' E 003°44'0 0.0
2018-Feb-19 16:00N 51°05' E 003°44'0 0.0
2018-Feb-19 15:30N 51°05' E 003°44'0 0.0
2018-Feb-19 15:00N 51°05' E 003°44'0 0.0
2018-Feb-19 14:21N 51°05' E 003°44'0 0.0
2018-Feb-19 14:00N 51°05' E 003°44'0 0.0
2018-Feb-19 13:30N 51°05' E 003°44'0 0.0
2018-Feb-19 13:00N 51°05' E 003°44'0 0.0
2018-Feb-19 12:31N 51°05' E 003°44'0 0.0
2018-Feb-19 12:00N 51°05' E 003°44'0 0.0
2018-Feb-19 11:30N 51°05' E 003°44'0 0.0
2018-Feb-19 10:54N 51°05' E 003°44'0 0.0
2018-Feb-19 10:27N 51°05' E 003°44'0 0.0
2018-Feb-19 10:00N 51°05' E 003°44'0 0.0
2018-Feb-19 09:30N 51°05' E 003°44'0 0.0
2018-Feb-19 08:51N 51°05' E 003°44'0 0.0
2018-Feb-19 08:24N 51°05' E 003°44'0 0.0
2018-Feb-19 08:00N 51°05' E 003°44'0 0.0
2018-Feb-19 07:30N 51°05' E 003°44'0 0.0
2018-Feb-19 06:51N 51°05' E 003°44'0 0.0
2018-Feb-19 06:30N 51°05' E 003°44'0 0.0
2018-Feb-19 06:00N 51°05' E 003°44'0 0.0
2018-Feb-19 05:24N 51°05' E 003°44'0 0.0
2018-Feb-19 04:57N 51°05' E 003°44'0 0.0
2018-Feb-19 04:30N 51°05' E 003°44'0 0.0
2018-Feb-19 04:00N 51°05' E 003°44'0 0.0
2018-Feb-19 03:27N 51°05' E 003°44'0 0.0
2018-Feb-19 02:57N 51°05' E 003°44'0 0.0
2018-Feb-19 02:30N 51°05' E 003°44'0 0.0
2018-Feb-19 01:57N 51°05' E 003°44'0 0.0
2018-Feb-19 01:30N 51°05' E 003°44'0 0.0
2018-Feb-19 00:57N 51°05' E 003°44'0 0.0
2018-Feb-19 00:27N 51°05' E 003°44'0 0.0
2018-Feb-19 00:00N 51°05' E 003°44'0 0.0
2018-Feb-18 23:30N 51°05' E 003°44'0 0.0
2018-Feb-18 22:57N 51°05' E 003°44'0 0.0
2018-Feb-18 22:30N 51°05' E 003°44'0 0.0
2018-Feb-18 22:00N 51°05' E 003°44'0 0.0
2018-Feb-18 21:27N 51°05' E 003°44'0 0.0
2018-Feb-18 20:57N 51°05' E 003°44'0 0.0
2018-Feb-18 20:30N 51°05' E 003°44'0 0.0
2018-Feb-18 20:00N 51°05' E 003°44'0 0.0
2018-Feb-18 19:27N 51°05' E 003°44'0 0.0
2018-Feb-18 19:00N 51°05' E 003°44'0 0.0
2018-Feb-18 18:30N 51°05' E 003°44'0 0.0
2018-Feb-18 18:00N 51°05' E 003°44'0 0.0
2018-Feb-18 17:30N 51°05' E 003°44'0 0.0
2018-Feb-18 17:00N 51°05' E 003°44'0 0.0
2018-Feb-18 16:30N 51°05' E 003°44'0 0.0
2018-Feb-18 15:54N 51°05' E 003°44'0 0.0
2018-Feb-18 15:30N 51°05' E 003°44'0 0.0
2018-Feb-18 15:00N 51°05' E 003°44'0 0.0
2018-Feb-18 14:30N 51°05' E 003°44'0 0.0
2018-Feb-18 14:00N 51°05' E 003°44'0 0.0
2018-Feb-18 13:30N 51°05' E 003°44'0 0.0
2018-Feb-18 13:00N 51°05' E 003°44'0 0.0
2018-Feb-18 12:30N 51°05' E 003°44'0 0.0
2018-Feb-18 12:00N 51°05' E 003°44'0 0.0
2018-Feb-18 11:30N 51°05' E 003°44'0 0.0
2018-Feb-18 10:57N 51°05' E 003°44'0 0.0
2018-Feb-18 10:30N 51°05' E 003°44'0 0.0
2018-Feb-18 09:57N 51°05' E 003°44'0 0.0
2018-Feb-18 09:30N 51°05' E 003°44'0 0.0
2018-Feb-18 08:57N 51°05' E 003°44'0 0.0
2018-Feb-18 08:27N 51°05' E 003°44'0 0.0
2018-Feb-18 07:57N 51°05' E 003°44'0 0.0
2018-Feb-18 07:27N 51°05' E 003°44'0 0.0
2018-Feb-18 07:00N 51°05' E 003°44'0 0.0
2018-Feb-18 06:30N 51°05' E 003°44'0 0.0
2018-Feb-18 05:57N 51°05' E 003°44'0 0.0
2018-Feb-18 05:27N 51°05' E 003°44'0 0.0
2018-Feb-18 05:00N 51°05' E 003°44'0 0.0
2018-Feb-18 04:30N 51°05' E 003°44'0 0.0
2018-Feb-18 03:57N 51°05' E 003°44'0 0.0
2018-Feb-18 03:30N 51°05' E 003°44'0 0.0
2018-Feb-18 02:57N 51°05' E 003°44'0 0.0
2018-Feb-18 02:27N 51°05' E 003°44'0 0.0
2018-Feb-18 01:59N 51°05' E 003°44'0 0.0
2018-Feb-18 01:29N 51°05' E 003°44'0 0.0
2018-Feb-18 00:59N 51°05' E 003°44'0 0.0
2018-Feb-18 00:27N 51°05' E 003°44'0 0.0
2018-Feb-17 23:59N 51°05' E 003°44'0 0.0
2018-Feb-17 23:30N 51°05' E 003°44'1 2.7
2018-Feb-17 23:01N 51°07' E 003°45'4 8.0
2018-Feb-17 22:31N 51°10' E 003°48'4 7.7
2018-Feb-17 22:00N 51°14' E 003°49'4 7.6
2018-Feb-17 21:31N 51°18' E 003°50'2 4.2
2018-Feb-17 21:01N 51°20' E 003°49'0 1.0
2018-Feb-17 20:30N 51°20' E 003°49'2 3.1
2018-Feb-17 20:00N 51°21' E 003°47'3 5.0
2018-Feb-17 19:30N 51°23' E 003°44'4 7.4
2018-Feb-17 19:00N 51°25' E 003°39'3 6.4
2018-Feb-17 18:30N 51°25' E 003°34'3 5.1
2018-Feb-17 18:00N 51°25' E 003°30'4 7.7
2018-Feb-17 17:30N 51°24' E 003°24'4 9.0
2018-Feb-17 17:01N 51°24' E 003°17'510.0
2018-Feb-17 16:31N 51°22' E 003°09'510.8
2018-Feb-17 16:01N 51°22' E 003°01'611.1
2018-Feb-17 15:30N 51°22' E 002°52'510.5
2018-Feb-17 15:00N 51°22' E 002°43'4 7.7
2018-Feb-17 14:30N 51°22' E 002°37'4 8.1
2018-Feb-17 13:59N 51°22' E 002°30'4 8.3
2018-Feb-17 13:29N 51°20' E 002°24'4 8.3
2018-Feb-17 13:00N 51°18' E 002°19'611.1
2018-Feb-17 12:30N 51°15' E 002°11'612.3
2018-Feb-17 12:00N 51°12' E 002°03'612.0
2018-Feb-17 11:31N 51°09' E 001°54'611.5
2018-Feb-17 11:01N 51°06' E 001°47'611.4
2018-Feb-17 10:31N 51°02' E 001°41'510.6
2018-Feb-17 10:00N 50°58' E 001°35'5 9.3
2018-Feb-17 09:30N 50°54' E 001°30'5 8.6
2018-Feb-17 08:56N 50°50' E 001°27'62 8.4
2018-Feb-17 01:29N 50°19' E 000°02'12 9.6
2018-Feb-17 00:16N 50°16' W 000°16'3211.7
2018-Feb-16 21:35N 50°07' W 001°03'213.2
2018-Feb-16 21:26N 50°07' W 001°06'613.3
2018-Feb-16 21:00N 50°05' W 001°15'713.5
2018-Feb-16 20:31N 50°03' W 001°25'713.5
2018-Feb-16 20:00N 50°02' W 001°35'713.3
2018-Feb-16 19:30N 50°00' W 001°45'612.7
2018-Feb-16 19:00N 49°59' W 001°55'119 9.3
2018-Feb-16 06:11N 49°07' W 004°41'311.0
2018-Feb-16 05:55N 49°06' W 004°45'611.1
2018-Feb-16 05:24N 49°03' W 004°53'511.2
2018-Feb-16 04:57N 49°01' W 004°60'611.2
2018-Feb-16 04:26N 48°58' W 005°08'811.3
2018-Feb-16 03:43N 48°53' W 005°17'311.2
2018-Feb-16 03:27N 48°52' W 005°21'611.2
2018-Feb-16 02:53N 48°49' W 005°30'411.1
2018-Feb-16 02:29N 48°46' W 005°35'  
2018-Feb-13 05:17N 39°24' W 009°50'3 8.9
2018-Feb-13 04:57N 39°21' W 009°50'4 9.1
2018-Feb-13 04:30N 39°17' W 009°50'5 9.0
2018-Feb-13 04:00N 39°13' W 009°50'4 8.9
2018-Feb-13 03:30N 39°08' W 009°50'  

Dump ship's entire track history